sensor_id;sensor_type;location;lat;lon;timestamp;P1;durP1;ratioP1;P2;durP2;ratioP2
22026;SDS011;11177;50.966;10.070;2023-07-24T00:01:10;1.48;;;1.38;;
22026;SDS011;11177;50.966;10.070;2023-07-24T00:03:37;1.77;;;1.40;;
22026;SDS011;11177;50.966;10.070;2023-07-24T00:06:04;2.08;;;1.40;;
22026;SDS011;11177;50.966;10.070;2023-07-24T00:08:32;3.05;;;1.30;;
22026;SDS011;11177;50.966;10.070;2023-07-24T00:11:01;1.55;;;1.45;;
22026;SDS011;11177;50.966;10.070;2023-07-24T00:13:31;2.00;;;1.30;;
22026;SDS011;11177;50.966;10.070;2023-07-24T00:15:58;2.08;;;1.50;;
22026;SDS011;11177;50.966;10.070;2023-07-24T00:18:25;1.90;;;1.40;;
22026;SDS011;11177;50.966;10.070;2023-07-24T00:20:52;1.67;;;1.50;;
22026;SDS011;11177;50.966;10.070;2023-07-24T00:23:19;1.63;;;1.33;;
22026;SDS011;11177;50.966;10.070;2023-07-24T00:25:46;2.55;;;1.40;;
22026;SDS011;11177;50.966;10.070;2023-07-24T00:28:13;2.08;;;1.33;;
22026;SDS011;11177;50.966;10.070;2023-07-24T00:30:40;1.33;;;1.20;;
22026;SDS011;11177;50.966;10.070;2023-07-24T00:33:06;3.67;;;1.20;;
22026;SDS011;11177;50.966;10.070;2023-07-24T00:35:33;2.15;;;1.70;;
22026;SDS011;11177;50.966;10.070;2023-07-24T00:38:00;2.53;;;1.55;;
22026;SDS011;11177;50.966;10.070;2023-07-24T00:40:27;2.83;;;1.73;;
22026;SDS011;11177;50.966;10.070;2023-07-24T00:42:54;1.98;;;1.60;;
22026;SDS011;11177;50.966;10.070;2023-07-24T00:45:21;1.55;;;1.42;;
22026;SDS011;11177;50.966;10.070;2023-07-24T00:47:49;2.17;;;1.50;;
22026;SDS011;11177;50.966;10.070;2023-07-24T00:50:16;4.25;;;1.63;;
22026;SDS011;11177;50.966;10.070;2023-07-24T00:52:43;2.05;;;1.40;;
22026;SDS011;11177;50.966;10.070;2023-07-24T00:55:10;1.63;;;1.52;;
22026;SDS011;11177;50.966;10.070;2023-07-24T00:57:39;1.42;;;1.33;;
22026;SDS011;11177;50.966;10.070;2023-07-24T01:00:07;1.95;;;1.48;;
22026;SDS011;11177;50.966;10.070;2023-07-24T01:02:34;1.60;;;1.50;;
22026;SDS011;11177;50.966;10.070;2023-07-24T01:05:01;1.73;;;1.60;;
22026;SDS011;11177;50.966;10.070;2023-07-24T01:07:29;2.70;;;1.38;;
22026;SDS011;11177;50.966;10.070;2023-07-24T01:09:56;2.28;;;1.33;;
22026;SDS011;11177;50.966;10.070;2023-07-24T01:12:27;2.97;;;1.27;;
22026;SDS011;11177;50.966;10.070;2023-07-24T01:15:02;1.60;;;1.50;;
22026;SDS011;11177;50.966;10.070;2023-07-24T01:17:35;2.13;;;1.35;;
22026;SDS011;11177;50.966;10.070;2023-07-24T01:20:06;1.63;;;1.23;;
22026;SDS011;11177;50.966;10.070;2023-07-24T01:22:39;2.40;;;1.30;;
22026;SDS011;11177;50.966;10.070;2023-07-24T01:25:28;1.42;;;1.30;;
22026;SDS011;11177;50.966;10.070;2023-07-24T01:27:58;1.83;;;1.60;;
22026;SDS011;11177;50.966;10.070;2023-07-24T01:30:25;2.88;;;1.67;;
22026;SDS011;11177;50.966;10.070;2023-07-24T01:32:52;3.05;;;1.80;;
22026;SDS011;11177;50.966;10.070;2023-07-24T01:35:18;2.35;;;1.35;;
22026;SDS011;11177;50.966;10.070;2023-07-24T01:37:46;2.88;;;1.60;;
22026;SDS011;11177;50.966;10.070;2023-07-24T01:40:13;1.70;;;1.60;;
22026;SDS011;11177;50.966;10.070;2023-07-24T01:42:40;1.70;;;1.30;;
22026;SDS011;11177;50.966;10.070;2023-07-24T01:45:07;1.92;;;1.70;;
22026;SDS011;11177;50.966;10.070;2023-07-24T01:47:35;3.55;;;1.52;;
22026;SDS011;11177;50.966;10.070;2023-07-24T01:50:02;2.10;;;1.55;;
22026;SDS011;11177;50.966;10.070;2023-07-24T01:52:29;4.60;;;1.60;;
22026;SDS011;11177;50.966;10.070;2023-07-24T01:54:56;2.58;;;1.85;;
22026;SDS011;11177;50.966;10.070;2023-07-24T01:57:22;2.53;;;1.80;;
22026;SDS011;11177;50.966;10.070;2023-07-24T01:59:49;2.40;;;1.77;;
22026;SDS011;11177;50.966;10.070;2023-07-24T02:02:16;2.88;;;1.67;;
22026;SDS011;11177;50.966;10.070;2023-07-24T02:04:43;4.80;;;1.70;;
22026;SDS011;11177;50.966;10.070;2023-07-24T02:07:09;3.60;;;1.60;;
22026;SDS011;11177;50.966;10.070;2023-07-24T02:09:36;1.90;;;1.70;;
22026;SDS011;11177;50.966;10.070;2023-07-24T02:12:03;4.03;;;1.83;;
22026;SDS011;11177;50.966;10.070;2023-07-24T02:14:31;3.60;;;1.75;;
22026;SDS011;11177;50.966;10.070;2023-07-24T02:16:58;2.95;;;1.58;;
22026;SDS011;11177;50.966;10.070;2023-07-24T02:19:25;2.25;;;1.80;;
22026;SDS011;11177;50.966;10.070;2023-07-24T02:21:51;3.03;;;1.70;;
22026;SDS011;11177;50.966;10.070;2023-07-24T02:24:18;2.03;;;1.67;;
22026;SDS011;11177;50.966;10.070;2023-07-24T02:26:45;2.53;;;1.60;;
22026;SDS011;11177;50.966;10.070;2023-07-24T02:29:12;2.00;;;1.77;;
22026;SDS011;11177;50.966;10.070;2023-07-24T02:31:39;3.13;;;1.98;;
22026;SDS011;11177;50.966;10.070;2023-07-24T02:34:05;3.35;;;1.73;;
22026;SDS011;11177;50.966;10.070;2023-07-24T02:36:32;4.20;;;1.90;;
22026;SDS011;11177;50.966;10.070;2023-07-24T02:38:59;3.15;;;1.88;;
22026;SDS011;11177;50.966;10.070;2023-07-24T02:41:26;2.90;;;1.75;;
22026;SDS011;11177;50.966;10.070;2023-07-24T02:43:53;2.92;;;1.90;;
22026;SDS011;11177;50.966;10.070;2023-07-24T02:46:20;2.40;;;1.95;;
22026;SDS011;11177;50.966;10.070;2023-07-24T02:48:47;2.10;;;1.88;;
22026;SDS011;11177;50.966;10.070;2023-07-24T02:51:13;2.30;;;1.80;;
22026;SDS011;11177;50.966;10.070;2023-07-24T02:53:40;2.35;;;1.80;;
22026;SDS011;11177;50.966;10.070;2023-07-24T02:56:07;1.83;;;1.70;;
22026;SDS011;11177;50.966;10.070;2023-07-24T02:58:34;2.63;;;1.90;;
22026;SDS011;11177;50.966;10.070;2023-07-24T03:01:04;1.70;;;1.50;;
22026;SDS011;11177;50.966;10.070;2023-07-24T03:03:33;5.32;;;2.10;;
22026;SDS011;11177;50.966;10.070;2023-07-24T03:06:01;3.20;;;1.90;;
22026;SDS011;11177;50.966;10.070;2023-07-24T03:08:28;2.30;;;1.90;;
22026;SDS011;11177;50.966;10.070;2023-07-24T03:10:55;2.45;;;1.80;;
22026;SDS011;11177;50.966;10.070;2023-07-24T03:13:21;2.20;;;1.80;;
22026;SDS011;11177;50.966;10.070;2023-07-24T03:15:52;3.38;;;1.90;;
22026;SDS011;11177;50.966;10.070;2023-07-24T03:18:23;2.85;;;1.83;;
22026;SDS011;11177;50.966;10.070;2023-07-24T03:20:51;2.85;;;1.52;;
22026;SDS011;11177;50.966;10.070;2023-07-24T03:23:18;4.22;;;2.00;;
22026;SDS011;11177;50.966;10.070;2023-07-24T03:25:44;2.35;;;1.90;;
22026;SDS011;11177;50.966;10.070;2023-07-24T03:28:11;2.08;;;1.70;;
22026;SDS011;11177;50.966;10.070;2023-07-24T03:30:38;2.90;;;2.00;;
22026;SDS011;11177;50.966;10.070;2023-07-24T03:33:05;2.13;;;1.65;;
22026;SDS011;11177;50.966;10.070;2023-07-24T03:35:33;3.88;;;1.63;;
22026;SDS011;11177;50.966;10.070;2023-07-24T03:37:59;1.98;;;1.77;;
22026;SDS011;11177;50.966;10.070;2023-07-24T03:40:26;2.38;;;2.03;;
22026;SDS011;11177;50.966;10.070;2023-07-24T03:42:53;2.30;;;2.10;;
22026;SDS011;11177;50.966;10.070;2023-07-24T03:45:20;2.10;;;1.90;;
22026;SDS011;11177;50.966;10.070;2023-07-24T03:47:47;3.58;;;1.95;;
22026;SDS011;11177;50.966;10.070;2023-07-24T03:50:14;1.95;;;1.70;;
22026;SDS011;11177;50.966;10.070;2023-07-24T03:52:41;2.10;;;1.90;;
22026;SDS011;11177;50.966;10.070;2023-07-24T03:55:08;2.30;;;2.03;;
22026;SDS011;11177;50.966;10.070;2023-07-24T03:57:37;3.47;;;2.05;;
22026;SDS011;11177;50.966;10.070;2023-07-24T04:00:04;2.75;;;1.85;;
22026;SDS011;11177;50.966;10.070;2023-07-24T04:02:32;4.40;;;1.90;;
22026;SDS011;11177;50.966;10.070;2023-07-24T04:04:59;4.97;;;1.92;;
22026;SDS011;11177;50.966;10.070;2023-07-24T04:07:26;2.50;;;2.08;;
22026;SDS011;11177;50.966;10.070;2023-07-24T04:09:53;4.40;;;1.88;;
22026;SDS011;11177;50.966;10.070;2023-07-24T04:12:20;2.53;;;2.00;;
22026;SDS011;11177;50.966;10.070;2023-07-24T04:14:47;4.80;;;2.28;;
22026;SDS011;11177;50.966;10.070;2023-07-24T04:17:15;2.95;;;2.03;;
22026;SDS011;11177;50.966;10.070;2023-07-24T04:19:42;3.28;;;2.20;;
22026;SDS011;11177;50.966;10.070;2023-07-24T04:22:09;4.22;;;2.00;;
22026;SDS011;11177;50.966;10.070;2023-07-24T04:24:36;3.35;;;1.95;;
22026;SDS011;11177;50.966;10.070;2023-07-24T04:27:03;3.40;;;1.98;;
22026;SDS011;11177;50.966;10.070;2023-07-24T04:29:30;2.58;;;1.85;;
22026;SDS011;11177;50.966;10.070;2023-07-24T04:31:56;2.38;;;1.90;;
22026;SDS011;11177;50.966;10.070;2023-07-24T04:34:23;3.10;;;1.77;;
22026;SDS011;11177;50.966;10.070;2023-07-24T04:36:50;4.93;;;2.25;;
22026;SDS011;11177;50.966;10.070;2023-07-24T04:39:17;2.63;;;2.10;;
22026;SDS011;11177;50.966;10.070;2023-07-24T04:41:44;4.30;;;2.17;;
22026;SDS011;11177;50.966;10.070;2023-07-24T04:44:11;3.53;;;2.00;;
22026;SDS011;11177;50.966;10.070;2023-07-24T04:46:37;3.00;;;2.17;;
22026;SDS011;11177;50.966;10.070;2023-07-24T04:49:04;3.42;;;2.13;;
22026;SDS011;11177;50.966;10.070;2023-07-24T04:51:31;2.22;;;2.03;;
22026;SDS011;11177;50.966;10.070;2023-07-24T04:54:01;4.15;;;1.92;;
22026;SDS011;11177;50.966;10.070;2023-07-24T04:56:28;3.17;;;2.28;;
22026;SDS011;11177;50.966;10.070;2023-07-24T04:58:55;4.43;;;2.30;;
22026;SDS011;11177;50.966;10.070;2023-07-24T05:01:22;3.95;;;2.83;;
22026;SDS011;11177;50.966;10.070;2023-07-24T05:03:49;3.88;;;2.33;;
22026;SDS011;11177;50.966;10.070;2023-07-24T05:06:16;4.63;;;2.58;;
22026;SDS011;11177;50.966;10.070;2023-07-24T05:08:42;3.10;;;2.28;;
22026;SDS011;11177;50.966;10.070;2023-07-24T05:11:10;4.30;;;2.30;;
22026;SDS011;11177;50.966;10.070;2023-07-24T05:13:36;3.05;;;2.10;;
22026;SDS011;11177;50.966;10.070;2023-07-24T05:16:03;5.95;;;2.38;;
22026;SDS011;11177;50.966;10.070;2023-07-24T05:18:30;5.72;;;2.60;;
22026;SDS011;11177;50.966;10.070;2023-07-24T05:20:57;2.85;;;2.22;;
22026;SDS011;11177;50.966;10.070;2023-07-24T05:23:24;4.55;;;2.45;;
22026;SDS011;11177;50.966;10.070;2023-07-24T05:26:00;3.15;;;2.50;;
22026;SDS011;11177;50.966;10.070;2023-07-24T05:28:30;3.72;;;2.40;;
22026;SDS011;11177;50.966;10.070;2023-07-24T05:31:01;3.00;;;2.47;;
22026;SDS011;11177;50.966;10.070;2023-07-24T05:33:31;2.83;;;2.30;;
22026;SDS011;11177;50.966;10.070;2023-07-24T05:36:02;2.85;;;2.20;;
22026;SDS011;11177;50.966;10.070;2023-07-24T05:38:29;3.78;;;2.67;;
22026;SDS011;11177;50.966;10.070;2023-07-24T05:40:57;3.67;;;2.33;;
22026;SDS011;11177;50.966;10.070;2023-07-24T05:43:24;3.25;;;2.70;;
22026;SDS011;11177;50.966;10.070;2023-07-24T05:45:51;2.58;;;2.30;;
22026;SDS011;11177;50.966;10.070;2023-07-24T05:48:19;4.35;;;2.40;;
22026;SDS011;11177;50.966;10.070;2023-07-24T05:50:46;3.35;;;2.28;;
22026;SDS011;11177;50.966;10.070;2023-07-24T05:53:14;5.22;;;2.50;;
22026;SDS011;11177;50.966;10.070;2023-07-24T05:55:42;3.13;;;2.42;;
22026;SDS011;11177;50.966;10.070;2023-07-24T05:58:09;3.90;;;2.10;;
22026;SDS011;11177;50.966;10.070;2023-07-24T06:00:36;2.42;;;2.00;;
22026;SDS011;11177;50.966;10.070;2023-07-24T06:03:03;3.15;;;2.40;;
22026;SDS011;11177;50.966;10.070;2023-07-24T06:05:33;5.38;;;2.50;;
22026;SDS011;11177;50.966;10.070;2023-07-24T06:08:00;2.50;;;2.30;;
22026;SDS011;11177;50.966;10.070;2023-07-24T06:10:27;4.63;;;2.53;;
22026;SDS011;11177;50.966;10.070;2023-07-24T06:12:54;3.42;;;2.60;;
22026;SDS011;11177;50.966;10.070;2023-07-24T06:15:21;4.28;;;2.40;;
22026;SDS011;11177;50.966;10.070;2023-07-24T06:17:47;3.92;;;2.55;;
22026;SDS011;11177;50.966;10.070;2023-07-24T06:20:19;6.80;;;3.00;;
22026;SDS011;11177;50.966;10.070;2023-07-24T06:22:46;5.13;;;2.83;;
22026;SDS011;11177;50.966;10.070;2023-07-24T06:25:13;4.18;;;2.67;;
22026;SDS011;11177;50.966;10.070;2023-07-24T06:27:40;6.63;;;2.80;;
22026;SDS011;11177;50.966;10.070;2023-07-24T06:30:07;4.15;;;2.58;;
22026;SDS011;11177;50.966;10.070;2023-07-24T06:32:41;3.28;;;2.47;;
22026;SDS011;11177;50.966;10.070;2023-07-24T06:35:08;4.93;;;2.45;;
22026;SDS011;11177;50.966;10.070;2023-07-24T06:37:35;3.63;;;2.22;;
22026;SDS011;11177;50.966;10.070;2023-07-24T06:40:03;6.32;;;2.40;;
22026;SDS011;11177;50.966;10.070;2023-07-24T06:42:30;8.10;;;2.70;;
22026;SDS011;11177;50.966;10.070;2023-07-24T06:44:57;6.35;;;2.40;;
22026;SDS011;11177;50.966;10.070;2023-07-24T06:47:24;2.50;;;2.30;;
22026;SDS011;11177;50.966;10.070;2023-07-24T06:49:52;4.00;;;2.40;;
22026;SDS011;11177;50.966;10.070;2023-07-24T06:52:18;4.05;;;2.60;;
22026;SDS011;11177;50.966;10.070;2023-07-24T06:54:45;3.67;;;2.38;;
22026;SDS011;11177;50.966;10.070;2023-07-24T06:57:12;4.95;;;3.17;;
22026;SDS011;11177;50.966;10.070;2023-07-24T06:59:39;3.90;;;2.80;;
22026;SDS011;11177;50.966;10.070;2023-07-24T07:02:06;4.15;;;2.50;;
22026;SDS011;11177;50.966;10.070;2023-07-24T07:04:33;3.80;;;2.35;;
22026;SDS011;11177;50.966;10.070;2023-07-24T07:07:01;4.82;;;2.33;;
22026;SDS011;11177;50.966;10.070;2023-07-24T07:09:27;3.83;;;2.65;;
22026;SDS011;11177;50.966;10.070;2023-07-24T07:11:55;3.45;;;2.60;;
22026;SDS011;11177;50.966;10.070;2023-07-24T07:14:21;5.22;;;2.70;;
22026;SDS011;11177;50.966;10.070;2023-07-24T07:16:48;4.05;;;2.50;;
22026;SDS011;11177;50.966;10.070;2023-07-24T07:19:15;4.15;;;2.67;;
22026;SDS011;11177;50.966;10.070;2023-07-24T07:21:42;4.90;;;2.90;;
22026;SDS011;11177;50.966;10.070;2023-07-24T07:24:09;6.13;;;3.20;;
22026;SDS011;11177;50.966;10.070;2023-07-24T07:26:36;3.75;;;3.00;;
22026;SDS011;11177;50.966;10.070;2023-07-24T07:29:02;4.60;;;3.00;;
22026;SDS011;11177;50.966;10.070;2023-07-24T07:31:29;4.47;;;2.92;;
22026;SDS011;11177;50.966;10.070;2023-07-24T07:33:56;3.97;;;2.92;;
22026;SDS011;11177;50.966;10.070;2023-07-24T07:36:23;2.97;;;2.67;;
22026;SDS011;11177;50.966;10.070;2023-07-24T07:38:50;4.22;;;2.90;;
22026;SDS011;11177;50.966;10.070;2023-07-24T07:41:16;3.22;;;2.92;;
22026;SDS011;11177;50.966;10.070;2023-07-24T07:43:43;4.15;;;3.30;;
22026;SDS011;11177;50.966;10.070;2023-07-24T07:46:11;5.57;;;2.90;;
22026;SDS011;11177;50.966;10.070;2023-07-24T07:48:47;9.90;;;3.13;;
22026;SDS011;11177;50.966;10.070;2023-07-24T07:51:15;3.85;;;2.95;;
22026;SDS011;11177;50.966;10.070;2023-07-24T07:53:42;3.63;;;3.20;;
22026;SDS011;11177;50.966;10.070;2023-07-24T07:56:09;5.35;;;3.00;;
22026;SDS011;11177;50.966;10.070;2023-07-24T07:58:36;4.30;;;3.10;;
22026;SDS011;11177;50.966;10.070;2023-07-24T08:01:04;3.65;;;3.10;;
22026;SDS011;11177;50.966;10.070;2023-07-24T08:03:31;8.85;;;2.80;;
22026;SDS011;11177;50.966;10.070;2023-07-24T08:05:59;3.60;;;3.05;;
22026;SDS011;11177;50.966;10.070;2023-07-24T08:08:26;3.13;;;2.83;;
22026;SDS011;11177;50.966;10.070;2023-07-24T08:10:53;3.92;;;3.15;;
22026;SDS011;11177;50.966;10.070;2023-07-24T08:13:20;6.55;;;3.20;;
22026;SDS011;11177;50.966;10.070;2023-07-24T08:15:47;5.28;;;2.88;;
22026;SDS011;11177;50.966;10.070;2023-07-24T08:18:13;5.55;;;3.47;;
22026;SDS011;11177;50.966;10.070;2023-07-24T08:20:40;7.60;;;3.30;;
22026;SDS011;11177;50.966;10.070;2023-07-24T08:23:07;3.65;;;3.00;;
22026;SDS011;11177;50.966;10.070;2023-07-24T08:25:34;3.72;;;3.03;;
22026;SDS011;11177;50.966;10.070;2023-07-24T08:28:01;4.03;;;3.35;;
22026;SDS011;11177;50.966;10.070;2023-07-24T08:30:31;4.95;;;3.70;;
22026;SDS011;11177;50.966;10.070;2023-07-24T08:32:59;4.85;;;3.35;;
22026;SDS011;11177;50.966;10.070;2023-07-24T08:35:26;3.92;;;3.38;;
22026;SDS011;11177;50.966;10.070;2023-07-24T08:37:53;4.47;;;3.13;;
22026;SDS011;11177;50.966;10.070;2023-07-24T08:40:19;3.63;;;3.15;;
22026;SDS011;11177;50.966;10.070;2023-07-24T08:42:48;3.53;;;3.20;;
22026;SDS011;11177;50.966;10.070;2023-07-24T08:45:15;5.05;;;3.10;;
22026;SDS011;11177;50.966;10.070;2023-07-24T08:47:43;4.30;;;3.00;;
22026;SDS011;11177;50.966;10.070;2023-07-24T08:50:11;3.80;;;2.90;;
22026;SDS011;11177;50.966;10.070;2023-07-24T08:52:39;4.20;;;2.83;;
22026;SDS011;11177;50.966;10.070;2023-07-24T08:55:06;4.60;;;3.40;;
22026;SDS011;11177;50.966;10.070;2023-07-24T08:57:34;3.20;;;2.80;;
22026;SDS011;11177;50.966;10.070;2023-07-24T09:00:02;4.78;;;3.20;;
22026;SDS011;11177;50.966;10.070;2023-07-24T09:02:35;4.75;;;3.30;;
22026;SDS011;11177;50.966;10.070;2023-07-24T09:05:02;4.45;;;3.28;;
22026;SDS011;11177;50.966;10.070;2023-07-24T09:07:30;5.18;;;3.30;;
22026;SDS011;11177;50.966;10.070;2023-07-24T09:09:58;4.95;;;3.55;;
22026;SDS011;11177;50.966;10.070;2023-07-24T09:12:25;4.30;;;3.15;;
22026;SDS011;11177;50.966;10.070;2023-07-24T09:15:04;5.00;;;3.25;;
22026;SDS011;11177;50.966;10.070;2023-07-24T09:17:33;3.83;;;2.97;;
22026;SDS011;11177;50.966;10.070;2023-07-24T09:20:01;6.43;;;3.22;;
22026;SDS011;11177;50.966;10.070;2023-07-24T09:22:29;3.20;;;2.85;;
22026;SDS011;11177;50.966;10.070;2023-07-24T09:24:56;4.65;;;3.45;;
22026;SDS011;11177;50.966;10.070;2023-07-24T09:27:24;4.53;;;3.33;;
22026;SDS011;11177;50.966;10.070;2023-07-24T09:29:53;3.65;;;3.10;;
22026;SDS011;11177;50.966;10.070;2023-07-24T09:32:23;4.45;;;3.33;;
22026;SDS011;11177;50.966;10.070;2023-07-24T09:34:52;4.10;;;3.63;;
22026;SDS011;11177;50.966;10.070;2023-07-24T09:37:23;6.35;;;3.65;;
22026;SDS011;11177;50.966;10.070;2023-07-24T09:39:51;4.30;;;3.40;;
22026;SDS011;11177;50.966;10.070;2023-07-24T09:42:27;4.55;;;3.80;;
22026;SDS011;11177;50.966;10.070;2023-07-24T09:44:57;6.30;;;3.92;;
22026;SDS011;11177;50.966;10.070;2023-07-24T09:47:25;5.65;;;3.50;;
22026;SDS011;11177;50.966;10.070;2023-07-24T09:50:12;8.55;;;3.40;;
22026;SDS011;11177;50.966;10.070;2023-07-24T09:52:40;4.20;;;3.50;;
22026;SDS011;11177;50.966;10.070;2023-07-24T09:55:12;5.38;;;3.60;;
22026;SDS011;11177;50.966;10.070;2023-07-24T09:57:48;4.13;;;3.40;;
22026;SDS011;11177;50.966;10.070;2023-07-24T10:00:17;11.18;;;3.80;;
22026;SDS011;11177;50.966;10.070;2023-07-24T10:02:44;4.75;;;3.35;;
22026;SDS011;11177;50.966;10.070;2023-07-24T10:05:11;8.77;;;3.78;;
22026;SDS011;11177;50.966;10.070;2023-07-24T10:07:38;4.22;;;3.05;;
22026;SDS011;11177;50.966;10.070;2023-07-24T10:10:06;4.00;;;3.25;;
22026;SDS011;11177;50.966;10.070;2023-07-24T10:12:33;7.18;;;3.60;;
22026;SDS011;11177;50.966;10.070;2023-07-24T10:15:00;6.40;;;3.70;;
22026;SDS011;11177;50.966;10.070;2023-07-24T10:17:37;4.05;;;3.60;;
22026;SDS011;11177;50.966;10.070;2023-07-24T10:20:06;8.73;;;3.55;;
22026;SDS011;11177;50.966;10.070;2023-07-24T10:22:35;6.35;;;3.65;;
22026;SDS011;11177;50.966;10.070;2023-07-24T10:25:04;5.43;;;3.90;;
22026;SDS011;11177;50.966;10.070;2023-07-24T10:27:35;4.30;;;3.83;;
22026;SDS011;11177;50.966;10.070;2023-07-24T10:30:03;4.93;;;3.28;;
22026;SDS011;11177;50.966;10.070;2023-07-24T10:32:51;4.68;;;4.07;;
22026;SDS011;11177;50.966;10.070;2023-07-24T10:35:21;5.55;;;3.70;;
22026;SDS011;11177;50.966;10.070;2023-07-24T10:37:58;6.38;;;3.80;;
22026;SDS011;11177;50.966;10.070;2023-07-24T10:40:25;5.70;;;3.53;;
22026;SDS011;11177;50.966;10.070;2023-07-24T10:42:59;5.80;;;3.53;;
22026;SDS011;11177;50.966;10.070;2023-07-24T10:45:27;6.07;;;3.58;;
22026;SDS011;11177;50.966;10.070;2023-07-24T10:48:08;5.43;;;3.38;;
22026;SDS011;11177;50.966;10.070;2023-07-24T10:56:10;7.55;;;3.55;;
22026;SDS011;11177;50.966;10.070;2023-07-24T10:58:37;8.05;;;3.90;;
22026;SDS011;11177;50.966;10.070;2023-07-24T11:01:04;5.20;;;3.60;;
22026;SDS011;11177;50.966;10.070;2023-07-24T11:03:32;4.72;;;3.70;;
22026;SDS011;11177;50.966;10.070;2023-07-24T11:05:59;4.45;;;3.38;;
22026;SDS011;11177;50.966;10.070;2023-07-24T11:08:25;6.38;;;3.65;;
22026;SDS011;11177;50.966;10.070;2023-07-24T11:10:53;7.32;;;3.53;;
22026;SDS011;11177;50.966;10.070;2023-07-24T11:13:23;6.30;;;3.58;;
22026;SDS011;11177;50.966;10.070;2023-07-24T11:15:51;6.03;;;3.83;;
22026;SDS011;11177;50.966;10.070;2023-07-24T11:18:19;4.95;;;3.58;;
22026;SDS011;11177;50.966;10.070;2023-07-24T11:20:56;6.03;;;3.60;;
22026;SDS011;11177;50.966;10.070;2023-07-24T11:23:23;5.85;;;3.70;;
22026;SDS011;11177;50.966;10.070;2023-07-24T11:25:51;4.50;;;3.85;;
22026;SDS011;11177;50.966;10.070;2023-07-24T11:28:18;4.65;;;3.72;;
22026;SDS011;11177;50.966;10.070;2023-07-24T11:30:46;6.43;;;3.67;;
22026;SDS011;11177;50.966;10.070;2023-07-24T11:33:14;5.78;;;3.80;;
22026;SDS011;11177;50.966;10.070;2023-07-24T11:35:45;6.93;;;3.80;;
22026;SDS011;11177;50.966;10.070;2023-07-24T11:38:12;4.82;;;3.83;;
22026;SDS011;11177;50.966;10.070;2023-07-24T11:40:41;5.00;;;3.92;;
22026;SDS011;11177;50.966;10.070;2023-07-24T11:43:15;5.40;;;3.80;;
22026;SDS011;11177;50.966;10.070;2023-07-24T11:45:44;5.97;;;4.10;;
22026;SDS011;11177;50.966;10.070;2023-07-24T11:48:13;7.57;;;4.10;;
22026;SDS011;11177;50.966;10.070;2023-07-24T11:50:44;6.53;;;4.20;;
22026;SDS011;11177;50.966;10.070;2023-07-24T11:53:33;8.85;;;4.15;;
22026;SDS011;11177;50.966;10.070;2023-07-24T11:55:59;6.18;;;3.90;;
22026;SDS011;11177;50.966;10.070;2023-07-24T11:58:26;4.50;;;3.88;;
22026;SDS011;11177;50.966;10.070;2023-07-24T12:00:54;6.25;;;4.57;;
22026;SDS011;11177;50.966;10.070;2023-07-24T12:03:22;7.32;;;4.72;;
22026;SDS011;11177;50.966;10.070;2023-07-24T12:05:51;5.80;;;4.00;;
22026;SDS011;11177;50.966;10.070;2023-07-24T12:08:28;5.03;;;3.90;;
22026;SDS011;11177;50.966;10.070;2023-07-24T12:10:57;8.45;;;4.13;;
22026;SDS011;11177;50.966;10.070;2023-07-24T12:13:24;6.07;;;4.15;;
22026;SDS011;11177;50.966;10.070;2023-07-24T12:15:51;8.95;;;4.00;;
22026;SDS011;11177;50.966;10.070;2023-07-24T12:18:18;6.00;;;4.65;;
22026;SDS011;11177;50.966;10.070;2023-07-24T12:20:45;7.20;;;4.50;;
22026;SDS011;11177;50.966;10.070;2023-07-24T12:23:12;5.53;;;4.20;;
22026;SDS011;11177;50.966;10.070;2023-07-24T12:25:39;6.15;;;4.10;;
22026;SDS011;11177;50.966;10.070;2023-07-24T12:28:05;5.35;;;4.28;;
22026;SDS011;11177;50.966;10.070;2023-07-24T12:30:32;6.28;;;4.05;;
22026;SDS011;11177;50.966;10.070;2023-07-24T12:32:59;6.72;;;4.32;;
22026;SDS011;11177;50.966;10.070;2023-07-24T12:35:26;9.65;;;3.75;;
22026;SDS011;11177;50.966;10.070;2023-07-24T12:37:53;6.10;;;4.13;;
22026;SDS011;11177;50.966;10.070;2023-07-24T12:40:20;4.72;;;3.90;;
22026;SDS011;11177;50.966;10.070;2023-07-24T12:42:47;7.78;;;4.15;;
22026;SDS011;11177;50.966;10.070;2023-07-24T12:45:14;5.18;;;3.90;;
22026;SDS011;11177;50.966;10.070;2023-07-24T12:47:41;7.20;;;4.50;;
22026;SDS011;11177;50.966;10.070;2023-07-24T12:50:09;6.50;;;4.35;;
22026;SDS011;11177;50.966;10.070;2023-07-24T12:52:36;7.55;;;4.28;;
22026;SDS011;11177;50.966;10.070;2023-07-24T12:55:03;4.95;;;4.05;;
22026;SDS011;11177;50.966;10.070;2023-07-24T12:57:30;8.68;;;4.60;;
22026;SDS011;11177;50.966;10.070;2023-07-24T12:59:57;5.40;;;4.57;;
22026;SDS011;11177;50.966;10.070;2023-07-24T13:02:24;9.02;;;4.50;;
22026;SDS011;11177;50.966;10.070;2023-07-24T13:04:52;9.02;;;4.47;;
22026;SDS011;11177;50.966;10.070;2023-07-24T13:07:18;7.75;;;4.45;;
22026;SDS011;11177;50.966;10.070;2023-07-24T13:09:46;8.25;;;3.92;;
22026;SDS011;11177;50.966;10.070;2023-07-24T13:12:12;6.60;;;4.20;;
22026;SDS011;11177;50.966;10.070;2023-07-24T13:14:39;5.25;;;3.97;;
22026;SDS011;11177;50.966;10.070;2023-07-24T13:17:08;6.40;;;3.85;;
22026;SDS011;11177;50.966;10.070;2023-07-24T13:19:35;7.10;;;4.25;;
22026;SDS011;11177;50.966;10.070;2023-07-24T13:22:03;7.05;;;3.90;;
22026;SDS011;11177;50.966;10.070;2023-07-24T13:24:30;5.78;;;3.85;;
22026;SDS011;11177;50.966;10.070;2023-07-24T13:26:57;5.25;;;4.13;;
22026;SDS011;11177;50.966;10.070;2023-07-24T13:29:23;8.50;;;3.80;;
22026;SDS011;11177;50.966;10.070;2023-07-24T13:31:52;4.57;;;3.78;;
22026;SDS011;11177;50.966;10.070;2023-07-24T13:34:19;6.65;;;4.18;;
22026;SDS011;11177;50.966;10.070;2023-07-24T13:36:47;8.30;;;3.95;;
22026;SDS011;11177;50.966;10.070;2023-07-24T13:39:13;7.53;;;4.28;;
22026;SDS011;11177;50.966;10.070;2023-07-24T13:41:40;9.30;;;4.82;;
22026;SDS011;11177;50.966;10.070;2023-07-24T13:44:08;8.73;;;4.72;;
22026;SDS011;11177;50.966;10.070;2023-07-24T13:46:35;6.65;;;4.60;;
22026;SDS011;11177;50.966;10.070;2023-07-24T13:49:05;9.75;;;4.60;;
22026;SDS011;11177;50.966;10.070;2023-07-24T13:51:32;7.13;;;3.97;;
22026;SDS011;11177;50.966;10.070;2023-07-24T13:53:59;6.03;;;4.32;;
22026;SDS011;11177;50.966;10.070;2023-07-24T13:56:28;8.93;;;4.93;;
22026;SDS011;11177;50.966;10.070;2023-07-24T13:58:57;6.40;;;4.35;;
22026;SDS011;11177;50.966;10.070;2023-07-24T14:01:24;11.70;;;4.60;;
22026;SDS011;11177;50.966;10.070;2023-07-24T14:03:52;6.03;;;4.65;;
22026;SDS011;11177;50.966;10.070;2023-07-24T14:06:19;6.47;;;4.50;;
22026;SDS011;11177;50.966;10.070;2023-07-24T14:08:46;9.10;;;5.15;;
22026;SDS011;11177;50.966;10.070;2023-07-24T14:11:13;6.70;;;5.00;;
22026;SDS011;11177;50.966;10.070;2023-07-24T14:13:40;10.25;;;5.38;;
22026;SDS011;11177;50.966;10.070;2023-07-24T14:16:07;5.80;;;4.68;;
22026;SDS011;11177;50.966;10.070;2023-07-24T14:18:33;6.97;;;4.55;;
22026;SDS011;11177;50.966;10.070;2023-07-24T14:21:00;5.82;;;3.63;;
22026;SDS011;11177;50.966;10.070;2023-07-24T14:23:27;6.00;;;4.18;;
22026;SDS011;11177;50.966;10.070;2023-07-24T14:25:54;4.93;;;4.43;;
22026;SDS011;11177;50.966;10.070;2023-07-24T14:28:21;8.55;;;4.32;;
22026;SDS011;11177;50.966;10.070;2023-07-24T14:30:48;4.63;;;3.90;;
22026;SDS011;11177;50.966;10.070;2023-07-24T14:33:15;5.82;;;4.32;;
22026;SDS011;11177;50.966;10.070;2023-07-24T14:35:42;5.20;;;4.00;;
22026;SDS011;11177;50.966;10.070;2023-07-24T14:38:09;4.72;;;4.03;;
22026;SDS011;11177;50.966;10.070;2023-07-24T14:40:36;5.22;;;3.45;;
22026;SDS011;11177;50.966;10.070;2023-07-24T14:43:03;6.47;;;3.45;;